Terminal Aerodrome Forecast
Issued by NWS

Home | Current Version | Previous Version | Text Only | Print | Product List | Glossary On
Versions: 1 2 3 4 5 6 7 8 9 10 11 12 13 14
000
FTUS43 KILX 201722
TAFBMI
TAF
KBMI 201722Z 2018/2118 23009KT P6SM OVC015
     FM202100 21008KT P6SM OVC008
     FM210600 18008KT 1SM -DZ BR OVC003=

USA.gov is the U.S. government's official web portal to all federal, state and local government web resources and services.